sensor_id;sensor_type;location;lat;lon;timestamp;pressure;altitude;pressure_sealevel;temperature;humidity
21869;BME280;11099;41.564;23.296;2024-03-17T09:02:26;97825.94;;;22.17;53.39
21869;BME280;11099;41.564;23.296;2024-03-17T09:25:06;97906.50;;;23.92;49.84
21869;BME280;11099;41.564;23.296;2024-03-17T09:27:35;97906.91;;;23.90;47.91
21869;BME280;11099;41.564;23.296;2024-03-17T09:30:07;97900.97;;;23.67;47.92
21869;BME280;11099;41.564;23.296;2024-03-17T09:32:42;97838.81;;;23.62;46.29
21869;BME280;11099;41.564;23.296;2024-03-17T09:35:10;97839.03;;;23.14;48.59
21869;BME280;11099;41.564;23.296;2024-03-17T09:37:38;97867.66;;;23.99;48.06
21869;BME280;11099;41.564;23.296;2024-03-17T10:14:28;97844.63;;;23.60;44.22
21869;BME280;11099;41.564;23.296;2024-03-17T10:16:54;97786.31;;;23.26;44.28
21869;BME280;11099;41.564;23.296;2024-03-17T10:22:15;97824.78;;;22.69;45.89
21869;BME280;11099;41.564;23.296;2024-03-17T10:30:31;97780.13;;;23.39;43.89
21869;BME280;11099;41.564;23.296;2024-03-17T10:32:59;97817.78;;;23.45;45.96
21869;BME280;11099;41.564;23.296;2024-03-17T10:35:36;97808.22;;;23.79;43.30
21869;BME280;11099;41.564;23.296;2024-03-17T10:38:07;97807.72;;;23.56;43.64
21869;BME280;11099;41.564;23.296;2024-03-17T10:40:34;97752.69;;;23.98;41.36
21869;BME280;11099;41.564;23.296;2024-03-17T10:43:02;97789.94;;;23.65;42.47
21869;BME280;11099;41.564;23.296;2024-03-17T10:45:28;97752.69;;;23.62;42.31
21869;BME280;11099;41.564;23.296;2024-03-17T10:48:02;97770.41;;;23.31;41.15
21869;BME280;11099;41.564;23.296;2024-03-17T10:50:37;97810.19;;;24.04;40.56
21869;BME280;11099;41.564;23.296;2024-03-17T10:53:04;97791.56;;;24.02;38.77
21869;BME280;11099;41.564;23.296;2024-03-17T10:55:43;97773.66;;;24.15;39.40
21869;BME280;11099;41.564;23.296;2024-03-17T10:58:23;97832.28;;;25.13;39.03
21869;BME280;11099;41.564;23.296;2024-03-17T11:00:50;97802.75;;;24.83;38.35
21869;BME280;11099;41.564;23.296;2024-03-17T11:03:18;97776.84;;;25.52;37.51
21869;BME280;11099;41.564;23.296;2024-03-17T11:05:47;97822.50;;;25.30;36.63
21869;BME280;11099;41.564;23.296;2024-03-17T11:08:16;97785.84;;;25.41;36.11
21869;BME280;11099;41.564;23.296;2024-03-17T11:10:49;97810.19;;;26.33;36.15
21869;BME280;11099;41.564;23.296;2024-03-17T11:13:26;97799.97;;;25.15;38.23
21869;BME280;11099;41.564;23.296;2024-03-17T11:15:53;97764.56;;;25.04;37.14
21869;BME280;11099;41.564;23.296;2024-03-17T11:21:17;97811.94;;;26.09;37.42
21869;BME280;11099;41.564;23.296;2024-03-17T11:23:42;97804.38;;;25.71;38.64
21869;BME280;11099;41.564;23.296;2024-03-17T11:26:08;97753.88;;;24.36;39.49
21869;BME280;11099;41.564;23.296;2024-03-17T11:28:52;97749.56;;;24.10;39.41
21869;BME280;11099;41.564;23.296;2024-03-17T11:31:37;97807.88;;;24.49;40.54
21869;BME280;11099;41.564;23.296;2024-03-17T11:34:08;97783.31;;;24.77;38.48
21869;BME280;11099;41.564;23.296;2024-03-17T11:36:50;97778.25;;;24.90;38.51
21869;BME280;11099;41.564;23.296;2024-03-17T11:39:16;97789.50;;;25.06;38.40
21869;BME280;11099;41.564;23.296;2024-03-17T11:41:47;97763.38;;;25.05;38.35
21869;BME280;11099;41.564;23.296;2024-03-17T11:47:02;97780.53;;;26.35;36.21
21869;BME280;11099;41.564;23.296;2024-03-17T11:49:39;97770.81;;;25.82;36.18
21869;BME280;11099;41.564;23.296;2024-03-17T11:52:09;97775.47;;;25.11;37.52
21869;BME280;11099;41.564;23.296;2024-03-17T11:54:39;97728.59;;;24.18;39.56
21869;BME280;11099;41.564;23.296;2024-03-17T11:57:14;97704.13;;;24.11;38.31
21869;BME280;11099;41.564;23.296;2024-03-17T11:59:41;97689.75;;;23.53;38.04
21869;BME280;11099;41.564;23.296;2024-03-17T12:07:47;97690.38;;;22.93;40.07
21869;BME280;11099;41.564;23.296;2024-03-17T12:10:47;97767.38;;;23.58;41.25
21869;BME280;11099;41.564;23.296;2024-03-17T12:34:59;97652.31;;;22.82;41.90
21869;BME280;11099;41.564;23.296;2024-03-17T12:37:27;97689.66;;;23.10;41.55
21869;BME280;11099;41.564;23.296;2024-03-17T12:46:27;97671.28;;;22.79;41.24
21869;BME280;11099;41.564;23.296;2024-03-17T12:54:19;97737.16;;;23.81;40.08
21869;BME280;11099;41.564;23.296;2024-03-17T12:59:44;97742.19;;;23.82;40.29
21869;BME280;11099;41.564;23.296;2024-03-17T13:02:28;97686.66;;;23.69;39.10
21869;BME280;11099;41.564;23.296;2024-03-17T13:05:20;97655.19;;;23.79;38.49
21869;BME280;11099;41.564;23.296;2024-03-17T13:07:46;97704.88;;;24.40;38.68
21869;BME280;11099;41.564;23.296;2024-03-17T13:10:18;97729.78;;;24.03;39.84
21869;BME280;11099;41.564;23.296;2024-03-17T13:12:47;97675.38;;;24.06;38.96
21869;BME280;11099;41.564;23.296;2024-03-17T13:15:14;97642.00;;;23.66;38.78
21869;BME280;11099;41.564;23.296;2024-03-17T13:20:35;97726.66;;;24.08;38.85
21869;BME280;11099;41.564;23.296;2024-03-17T13:23:01;97680.03;;;23.84;39.10
21869;BME280;11099;41.564;23.296;2024-03-17T13:28:40;97715.00;;;23.64;40.37
21869;BME280;11099;41.564;23.296;2024-03-17T13:31:08;97666.44;;;23.42;41.52
21869;BME280;11099;41.564;23.296;2024-03-17T13:33:35;97678.13;;;23.63;41.87
21869;BME280;11099;41.564;23.296;2024-03-17T13:36:02;97619.44;;;23.05;42.08
21869;BME280;11099;41.564;23.296;2024-03-17T13:38:28;97661.00;;;23.49;40.90
21869;BME280;11099;41.564;23.296;2024-03-17T13:40:53;97627.38;;;22.48;43.04
21869;BME280;11099;41.564;23.296;2024-03-17T13:43:19;97640.03;;;23.60;40.23
21869;BME280;11099;41.564;23.296;2024-03-17T13:45:45;97679.59;;;23.22;41.33
21869;BME280;11099;41.564;23.296;2024-03-17T13:48:16;97714.94;;;23.43;41.14
21869;BME280;11099;41.564;23.296;2024-03-17T13:50:42;97661.69;;;22.92;41.44
21869;BME280;11099;41.564;23.296;2024-03-17T13:53:10;97648.16;;;23.35;41.31
21869;BME280;11099;41.564;23.296;2024-03-17T13:55:36;97657.50;;;23.48;40.80
21869;BME280;11099;41.564;23.296;2024-03-17T13:58:03;97620.66;;;23.76;39.73
21869;BME280;11099;41.564;23.296;2024-03-17T14:00:30;97690.53;;;24.18;39.74
21869;BME280;11099;41.564;23.296;2024-03-17T14:02:57;97650.84;;;24.46;39.94
21869;BME280;11099;41.564;23.296;2024-03-17T14:05:24;97610.97;;;23.64;40.62
21869;BME280;11099;41.564;23.296;2024-03-17T14:07:51;97647.41;;;24.06;41.09
21869;BME280;11099;41.564;23.296;2024-03-17T14:10:18;97639.63;;;24.15;40.28
21869;BME280;11099;41.564;23.296;2024-03-17T14:12:45;97609.69;;;24.15;39.23
21869;BME280;11099;41.564;23.296;2024-03-17T14:15:13;97655.44;;;24.63;38.92
21869;BME280;11099;41.564;23.296;2024-03-17T14:23:31;97622.59;;;23.47;42.91
21869;BME280;11099;41.564;23.296;2024-03-17T14:26:00;97615.19;;;23.08;44.17
21869;BME280;11099;41.564;23.296;2024-03-17T14:37:26;97617.19;;;23.68;40.51
21869;BME280;11099;41.564;23.296;2024-03-17T14:39:55;97590.75;;;23.40;40.93
21869;BME280;11099;41.564;23.296;2024-03-17T14:42:21;97609.69;;;24.15;39.97
21869;BME280;11099;41.564;23.296;2024-03-17T14:44:47;97648.56;;;24.19;39.91
21869;BME280;11099;41.564;23.296;2024-03-17T14:47:13;97618.63;;;24.15;39.45
21869;BME280;11099;41.564;23.296;2024-03-17T14:49:39;97668.81;;;23.86;40.93
21869;BME280;11099;41.564;23.296;2024-03-17T14:52:05;97635.75;;;23.45;40.89
21869;BME280;11099;41.564;23.296;2024-03-17T14:54:31;97680.00;;;24.34;40.36
21869;BME280;11099;41.564;23.296;2024-03-17T14:56:57;97611.09;;;22.45;42.21
21869;BME280;11099;41.564;23.296;2024-03-17T15:05:26;97629.34;;;22.55;38.34
21869;BME280;11099;41.564;23.296;2024-03-17T15:07:52;97622.41;;;22.65;35.00
21869;BME280;11099;41.564;23.296;2024-03-17T15:13:15;97596.50;;;22.88;34.62
21869;BME280;11099;41.564;23.296;2024-03-17T15:15:44;97612.31;;;22.69;35.05
21869;BME280;11099;41.564;23.296;2024-03-17T15:18:12;97636.22;;;22.34;34.59
21869;BME280;11099;41.564;23.296;2024-03-17T15:23:33;97609.91;;;22.42;34.46
21869;BME280;11099;41.564;23.296;2024-03-17T15:35:12;97638.66;;;22.61;34.03
